sensor_id;sensor_type;location;lat;lon;timestamp;temperature;humidity
3172;DHT22;1597;51.572;6.992;2022-07-01T00:00:51;17.40;99.90
3172;DHT22;1597;51.572;6.992;2022-07-01T00:03:17;17.30;99.90
3172;DHT22;1597;51.572;6.992;2022-07-01T00:05:42;17.10;99.90
3172;DHT22;1597;51.572;6.992;2022-07-01T00:08:08;17.10;99.90
3172;DHT22;1597;51.572;6.992;2022-07-01T00:10:35;17.00;99.90
3172;DHT22;1597;51.572;6.992;2022-07-01T00:13:03;17.00;99.90
3172;DHT22;1597;51.572;6.992;2022-07-01T00:15:30;17.00;99.90
3172;DHT22;1597;51.572;6.992;2022-07-01T00:17:55;16.90;99.90
3172;DHT22;1597;51.572;6.992;2022-07-01T00:20:21;16.90;99.90
3172;DHT22;1597;51.572;6.992;2022-07-01T00:22:47;17.00;99.90
3172;DHT22;1597;51.572;6.992;2022-07-01T00:25:13;16.90;99.90
3172;DHT22;1597;51.572;6.992;2022-07-01T00:27:39;16.90;99.90
3172;DHT22;1597;51.572;6.992;2022-07-01T00:30:09;17.20;99.90
3172;DHT22;1597;51.572;6.992;2022-07-01T00:32:36;17.30;99.90
3172;DHT22;1597;51.572;6.992;2022-07-01T00:35:03;17.20;99.90
3172;DHT22;1597;51.572;6.992;2022-07-01T00:37:30;17.20;99.90
3172;DHT22;1597;51.572;6.992;2022-07-01T00:39:56;17.20;99.90
3172;DHT22;1597;51.572;6.992;2022-07-01T00:42:22;17.30;99.90
3172;DHT22;1597;51.572;6.992;2022-07-01T00:44:47;17.50;99.90
3172;DHT22;1597;51.572;6.992;2022-07-01T00:47:13;17.70;99.90
3172;DHT22;1597;51.572;6.992;2022-07-01T00:49:40;17.70;99.90
3172;DHT22;1597;51.572;6.992;2022-07-01T00:52:08;17.80;99.90
3172;DHT22;1597;51.572;6.992;2022-07-01T00:54:36;17.60;99.90
3172;DHT22;1597;51.572;6.992;2022-07-01T00:57:10;17.60;99.90
3172;DHT22;1597;51.572;6.992;2022-07-01T00:59:39;17.50;99.90
3172;DHT22;1597;51.572;6.992;2022-07-01T01:02:06;17.30;99.90
3172;DHT22;1597;51.572;6.992;2022-07-01T01:04:33;17.20;99.90
3172;DHT22;1597;51.572;6.992;2022-07-01T01:07:00;17.20;99.90
3172;DHT22;1597;51.572;6.992;2022-07-01T01:09:29;17.10;99.90
3172;DHT22;1597;51.572;6.992;2022-07-01T01:11:58;17.20;99.90
3172;DHT22;1597;51.572;6.992;2022-07-01T01:14:48;17.10;99.90
3172;DHT22;1597;51.572;6.992;2022-07-01T01:17:16;17.40;99.90
3172;DHT22;1597;51.572;6.992;2022-07-01T01:19:43;17.50;99.90
3172;DHT22;1597;51.572;6.992;2022-07-01T01:22:10;17.50;99.90
3172;DHT22;1597;51.572;6.992;2022-07-01T01:24:37;17.50;99.90
3172;DHT22;1597;51.572;6.992;2022-07-01T01:27:06;17.50;99.90
3172;DHT22;1597;51.572;6.992;2022-07-01T01:29:32;17.60;99.90
3172;DHT22;1597;51.572;6.992;2022-07-01T01:32:01;17.80;99.90
3172;DHT22;1597;51.572;6.992;2022-07-01T01:34:27;17.90;99.90
3172;DHT22;1597;51.572;6.992;2022-07-01T01:36:53;17.90;99.90
3172;DHT22;1597;51.572;6.992;2022-07-01T01:39:19;17.90;99.90
3172;DHT22;1597;51.572;6.992;2022-07-01T01:41:46;17.70;99.90
3172;DHT22;1597;51.572;6.992;2022-07-01T01:44:13;17.50;99.90
3172;DHT22;1597;51.572;6.992;2022-07-01T01:46:39;17.40;99.90
3172;DHT22;1597;51.572;6.992;2022-07-01T01:49:06;17.30;99.90
3172;DHT22;1597;51.572;6.992;2022-07-01T01:51:33;17.40;99.90
3172;DHT22;1597;51.572;6.992;2022-07-01T01:53:59;17.50;99.90
3172;DHT22;1597;51.572;6.992;2022-07-01T01:56:26;17.50;99.90
3172;DHT22;1597;51.572;6.992;2022-07-01T01:58:52;17.40;99.90
3172;DHT22;1597;51.572;6.992;2022-07-01T02:01:19;17.40;99.90
3172;DHT22;1597;51.572;6.992;2022-07-01T02:03:47;17.20;99.90
3172;DHT22;1597;51.572;6.992;2022-07-01T02:06:16;17.30;99.90
3172;DHT22;1597;51.572;6.992;2022-07-01T02:08:43;17.20;99.90
3172;DHT22;1597;51.572;6.992;2022-07-01T02:11:09;17.10;99.90
3172;DHT22;1597;51.572;6.992;2022-07-01T02:13:36;17.00;99.90
3172;DHT22;1597;51.572;6.992;2022-07-01T02:16:03;16.90;99.90
3172;DHT22;1597;51.572;6.992;2022-07-01T02:18:29;16.90;99.90
3172;DHT22;1597;51.572;6.992;2022-07-01T02:20:58;16.90;99.90
3172;DHT22;1597;51.572;6.992;2022-07-01T02:23:25;17.00;99.90
3172;DHT22;1597;51.572;6.992;2022-07-01T02:25:51;17.00;99.90
3172;DHT22;1597;51.572;6.992;2022-07-01T02:28:17;17.10;99.90
3172;DHT22;1597;51.572;6.992;2022-07-01T02:30:43;17.10;99.90
3172;DHT22;1597;51.572;6.992;2022-07-01T02:33:09;17.30;99.90
3172;DHT22;1597;51.572;6.992;2022-07-01T02:35:38;17.50;99.90
3172;DHT22;1597;51.572;6.992;2022-07-01T02:38:05;17.50;99.90
3172;DHT22;1597;51.572;6.992;2022-07-01T02:40:32;17.50;99.90
3172;DHT22;1597;51.572;6.992;2022-07-01T02:42:59;17.50;99.90
3172;DHT22;1597;51.572;6.992;2022-07-01T02:45:25;17.30;99.90
3172;DHT22;1597;51.572;6.992;2022-07-01T02:47:51;17.00;99.90
3172;DHT22;1597;51.572;6.992;2022-07-01T02:50:18;16.80;99.90
3172;DHT22;1597;51.572;6.992;2022-07-01T02:52:45;16.70;99.90
3172;DHT22;1597;51.572;6.992;2022-07-01T02:55:12;16.70;99.90
3172;DHT22;1597;51.572;6.992;2022-07-01T02:57:43;16.60;99.90
3172;DHT22;1597;51.572;6.992;2022-07-01T03:00:12;16.50;99.90
3172;DHT22;1597;51.572;6.992;2022-07-01T03:02:39;16.60;99.90
3172;DHT22;1597;51.572;6.992;2022-07-01T03:05:06;16.70;99.90
3172;DHT22;1597;51.572;6.992;2022-07-01T03:07:33;16.70;99.90
3172;DHT22;1597;51.572;6.992;2022-07-01T03:10:06;16.80;99.90
3172;DHT22;1597;51.572;6.992;2022-07-01T03:12:34;16.70;99.90
3172;DHT22;1597;51.572;6.992;2022-07-01T03:15:11;16.60;99.90
3172;DHT22;1597;51.572;6.992;2022-07-01T03:17:40;16.50;99.90
3172;DHT22;1597;51.572;6.992;2022-07-01T03:20:14;16.50;99.90
3172;DHT22;1597;51.572;6.992;2022-07-01T03:22:43;16.60;99.90
3172;DHT22;1597;51.572;6.992;2022-07-01T03:25:10;16.60;99.90
3172;DHT22;1597;51.572;6.992;2022-07-01T03:27:37;16.60;99.90
3172;DHT22;1597;51.572;6.992;2022-07-01T03:30:05;16.60;99.90
3172;DHT22;1597;51.572;6.992;2022-07-01T03:32:31;16.50;99.90
3172;DHT22;1597;51.572;6.992;2022-07-01T03:34:57;16.50;99.90
3172;DHT22;1597;51.572;6.992;2022-07-01T03:37:23;16.40;99.90
3172;DHT22;1597;51.572;6.992;2022-07-01T03:39:49;16.50;99.90
3172;DHT22;1597;51.572;6.992;2022-07-01T03:42:16;16.50;99.90
3172;DHT22;1597;51.572;6.992;2022-07-01T03:44:43;16.50;99.90
3172;DHT22;1597;51.572;6.992;2022-07-01T03:47:09;16.50;99.90
3172;DHT22;1597;51.572;6.992;2022-07-01T03:49:36;16.60;99.90
3172;DHT22;1597;51.572;6.992;2022-07-01T03:52:03;16.70;99.90
3172;DHT22;1597;51.572;6.992;2022-07-01T03:54:29;16.70;99.90
3172;DHT22;1597;51.572;6.992;2022-07-01T03:57:08;16.80;99.90
3172;DHT22;1597;51.572;6.992;2022-07-01T03:59:37;16.90;99.90
3172;DHT22;1597;51.572;6.992;2022-07-01T04:02:05;16.90;99.90
3172;DHT22;1597;51.572;6.992;2022-07-01T04:04:33;16.90;99.90
3172;DHT22;1597;51.572;6.992;2022-07-01T04:07:01;16.80;99.90
3172;DHT22;1597;51.572;6.992;2022-07-01T04:09:29;16.80;99.90
3172;DHT22;1597;51.572;6.992;2022-07-01T04:11:57;16.70;99.90
3172;DHT22;1597;51.572;6.992;2022-07-01T04:14:24;16.60;99.90
3172;DHT22;1597;51.572;6.992;2022-07-01T04:16:50;16.50;99.90
3172;DHT22;1597;51.572;6.992;2022-07-01T04:19:17;16.60;99.90
3172;DHT22;1597;51.572;6.992;2022-07-01T04:21:43;16.70;99.90
3172;DHT22;1597;51.572;6.992;2022-07-01T04:24:28;17.00;99.90
3172;DHT22;1597;51.572;6.992;2022-07-01T04:26:55;17.00;99.90
3172;DHT22;1597;51.572;6.992;2022-07-01T04:29:21;16.90;99.90
3172;DHT22;1597;51.572;6.992;2022-07-01T04:31:47;16.70;99.90
3172;DHT22;1597;51.572;6.992;2022-07-01T04:34:13;16.80;99.90
3172;DHT22;1597;51.572;6.992;2022-07-01T04:36:39;16.80;99.90
3172;DHT22;1597;51.572;6.992;2022-07-01T04:39:05;16.90;99.90
3172;DHT22;1597;51.572;6.992;2022-07-01T04:41:32;17.10;99.90
3172;DHT22;1597;51.572;6.992;2022-07-01T04:44:35;17.20;99.90
3172;DHT22;1597;51.572;6.992;2022-07-01T04:47:02;17.30;99.90
3172;DHT22;1597;51.572;6.992;2022-07-01T04:49:30;17.20;99.90
3172;DHT22;1597;51.572;6.992;2022-07-01T04:51:57;17.30;99.90
3172;DHT22;1597;51.572;6.992;2022-07-01T04:54:24;17.40;99.90
3172;DHT22;1597;51.572;6.992;2022-07-01T04:56:51;17.60;99.90
3172;DHT22;1597;51.572;6.992;2022-07-01T04:59:18;17.60;99.90
3172;DHT22;1597;51.572;6.992;2022-07-01T05:01:45;17.80;99.90
3172;DHT22;1597;51.572;6.992;2022-07-01T05:04:14;17.90;99.90
3172;DHT22;1597;51.572;6.992;2022-07-01T05:06:40;17.70;99.90
3172;DHT22;1597;51.572;6.992;2022-07-01T05:09:06;17.50;99.90
3172;DHT22;1597;51.572;6.992;2022-07-01T05:11:32;17.30;99.90
3172;DHT22;1597;51.572;6.992;2022-07-01T05:13:58;17.40;99.90
3172;DHT22;1597;51.572;6.992;2022-07-01T05:16:24;17.40;99.90
3172;DHT22;1597;51.572;6.992;2022-07-01T05:18:50;17.30;99.90
3172;DHT22;1597;51.572;6.992;2022-07-01T05:21:34;17.20;99.90
3172;DHT22;1597;51.572;6.992;2022-07-01T05:24:19;17.10;99.90
3172;DHT22;1597;51.572;6.992;2022-07-01T05:26:45;17.10;99.90
3172;DHT22;1597;51.572;6.992;2022-07-01T05:29:11;17.10;99.90
3172;DHT22;1597;51.572;6.992;2022-07-01T05:31:37;17.10;99.90
3172;DHT22;1597;51.572;6.992;2022-07-01T05:34:03;17.20;99.90
3172;DHT22;1597;51.572;6.992;2022-07-01T05:36:30;17.20;99.90
3172;DHT22;1597;51.572;6.992;2022-07-01T05:38:57;17.10;99.90
3172;DHT22;1597;51.572;6.992;2022-07-01T05:41:25;17.10;99.90
3172;DHT22;1597;51.572;6.992;2022-07-01T05:43:52;17.20;99.90
3172;DHT22;1597;51.572;6.992;2022-07-01T05:46:18;17.50;99.90
3172;DHT22;1597;51.572;6.992;2022-07-01T05:48:45;17.50;99.90
3172;DHT22;1597;51.572;6.992;2022-07-01T05:51:11;17.50;99.90
3172;DHT22;1597;51.572;6.992;2022-07-01T05:53:38;17.40;99.90
3172;DHT22;1597;51.572;6.992;2022-07-01T05:56:04;17.40;99.90
3172;DHT22;1597;51.572;6.992;2022-07-01T05:58:31;17.30;99.90
3172;DHT22;1597;51.572;6.992;2022-07-01T06:00:57;17.40;99.90
3172;DHT22;1597;51.572;6.992;2022-07-01T06:03:23;17.30;99.90
3172;DHT22;1597;51.572;6.992;2022-07-01T06:05:50;17.30;99.90
3172;DHT22;1597;51.572;6.992;2022-07-01T06:08:16;17.30;99.90
3172;DHT22;1597;51.572;6.992;2022-07-01T06:10:42;17.10;99.90
3172;DHT22;1597;51.572;6.992;2022-07-01T06:13:08;17.50;99.90
3172;DHT22;1597;51.572;6.992;2022-07-01T06:15:34;17.60;99.90
3172;DHT22;1597;51.572;6.992;2022-07-01T06:18:01;17.70;99.90
3172;DHT22;1597;51.572;6.992;2022-07-01T06:20:28;17.80;99.90
3172;DHT22;1597;51.572;6.992;2022-07-01T06:22:55;17.80;99.90
3172;DHT22;1597;51.572;6.992;2022-07-01T06:25:23;17.60;99.90
3172;DHT22;1597;51.572;6.992;2022-07-01T06:27:49;17.60;99.90
3172;DHT22;1597;51.572;6.992;2022-07-01T06:30:14;17.60;99.90
3172;DHT22;1597;51.572;6.992;2022-07-01T06:32:41;17.50;99.90
3172;DHT22;1597;51.572;6.992;2022-07-01T06:35:07;17.40;99.90
3172;DHT22;1597;51.572;6.992;2022-07-01T06:37:34;17.40;99.90
3172;DHT22;1597;51.572;6.992;2022-07-01T06:40:02;17.50;99.90
3172;DHT22;1597;51.572;6.992;2022-07-01T06:42:32;17.40;99.90
3172;DHT22;1597;51.572;6.992;2022-07-01T06:44:58;17.50;99.90
3172;DHT22;1597;51.572;6.992;2022-07-01T06:47:25;17.50;99.90
3172;DHT22;1597;51.572;6.992;2022-07-01T06:49:50;17.70;99.90
3172;DHT22;1597;51.572;6.992;2022-07-01T06:52:16;17.80;99.90
3172;DHT22;1597;51.572;6.992;2022-07-01T06:54:42;17.80;99.90
3172;DHT22;1597;51.572;6.992;2022-07-01T06:57:08;17.70;99.90
3172;DHT22;1597;51.572;6.992;2022-07-01T06:59:34;17.50;99.90
3172;DHT22;1597;51.572;6.992;2022-07-01T07:02:00;17.30;99.90
3172;DHT22;1597;51.572;6.992;2022-07-01T07:04:26;17.30;99.90
3172;DHT22;1597;51.572;6.992;2022-07-01T07:06:52;17.20;99.90
3172;DHT22;1597;51.572;6.992;2022-07-01T07:09:18;17.30;99.90
3172;DHT22;1597;51.572;6.992;2022-07-01T07:11:44;17.50;99.90
3172;DHT22;1597;51.572;6.992;2022-07-01T07:14:10;17.50;99.90
3172;DHT22;1597;51.572;6.992;2022-07-01T07:16:35;17.40;99.90
3172;DHT22;1597;51.572;6.992;2022-07-01T07:19:01;17.50;99.90
3172;DHT22;1597;51.572;6.992;2022-07-01T07:21:28;17.50;99.90
3172;DHT22;1597;51.572;6.992;2022-07-01T07:23:54;17.50;99.90
3172;DHT22;1597;51.572;6.992;2022-07-01T07:26:19;17.50;99.90
3172;DHT22;1597;51.572;6.992;2022-07-01T07:28:47;17.60;99.90
3172;DHT22;1597;51.572;6.992;2022-07-01T07:31:13;17.50;99.90
3172;DHT22;1597;51.572;6.992;2022-07-01T07:33:39;17.60;99.90
3172;DHT22;1597;51.572;6.992;2022-07-01T07:36:05;17.60;99.90
3172;DHT22;1597;51.572;6.992;2022-07-01T07:38:36;17.70;99.90
3172;DHT22;1597;51.572;6.992;2022-07-01T07:41:05;17.80;99.90
3172;DHT22;1597;51.572;6.992;2022-07-01T07:43:35;17.70;99.90
3172;DHT22;1597;51.572;6.992;2022-07-01T07:46:03;17.80;99.90
3172;DHT22;1597;51.572;6.992;2022-07-01T07:48:30;17.80;99.90
3172;DHT22;1597;51.572;6.992;2022-07-01T07:50:57;17.50;99.90
3172;DHT22;1597;51.572;6.992;2022-07-01T07:53:23;17.70;99.90
3172;DHT22;1597;51.572;6.992;2022-07-01T07:55:53;17.70;99.90
3172;DHT22;1597;51.572;6.992;2022-07-01T07:58:19;17.70;99.90
3172;DHT22;1597;51.572;6.992;2022-07-01T08:00:45;17.80;99.90
3172;DHT22;1597;51.572;6.992;2022-07-01T08:03:11;17.90;99.90
3172;DHT22;1597;51.572;6.992;2022-07-01T08:05:38;17.90;99.90
3172;DHT22;1597;51.572;6.992;2022-07-01T08:08:04;17.80;99.90
3172;DHT22;1597;51.572;6.992;2022-07-01T08:10:30;18.10;99.90
3172;DHT22;1597;51.572;6.992;2022-07-01T08:12:56;18.20;99.90
3172;DHT22;1597;51.572;6.992;2022-07-01T08:15:23;18.10;99.90
3172;DHT22;1597;51.572;6.992;2022-07-01T08:17:49;18.10;99.90
3172;DHT22;1597;51.572;6.992;2022-07-01T08:20:14;18.00;99.90
3172;DHT22;1597;51.572;6.992;2022-07-01T08:22:42;17.90;99.90
3172;DHT22;1597;51.572;6.992;2022-07-01T08:25:08;17.90;99.90
3172;DHT22;1597;51.572;6.992;2022-07-01T08:27:34;17.90;99.90
3172;DHT22;1597;51.572;6.992;2022-07-01T08:30:00;17.90;99.90
3172;DHT22;1597;51.572;6.992;2022-07-01T08:32:28;17.90;99.90
3172;DHT22;1597;51.572;6.992;2022-07-01T08:34:54;18.00;99.90
3172;DHT22;1597;51.572;6.992;2022-07-01T08:37:20;18.00;99.90
3172;DHT22;1597;51.572;6.992;2022-07-01T08:39:46;17.90;99.90
3172;DHT22;1597;51.572;6.992;2022-07-01T08:42:12;17.90;99.90
3172;DHT22;1597;51.572;6.992;2022-07-01T08:44:37;18.00;99.90
3172;DHT22;1597;51.572;6.992;2022-07-01T08:47:03;18.10;99.90
3172;DHT22;1597;51.572;6.992;2022-07-01T08:49:31;18.10;99.90
3172;DHT22;1597;51.572;6.992;2022-07-01T08:51:57;18.20;99.90
3172;DHT22;1597;51.572;6.992;2022-07-01T08:54:23;18.40;96.80
3172;DHT22;1597;51.572;6.992;2022-07-01T08:56:49;18.40;98.00
3172;DHT22;1597;51.572;6.992;2022-07-01T08:59:22;18.50;96.20
3172;DHT22;1597;51.572;6.992;2022-07-01T09:02:01;18.50;98.00
3172;DHT22;1597;51.572;6.992;2022-07-01T09:04:31;18.50;98.60
3172;DHT22;1597;51.572;6.992;2022-07-01T09:07:08;18.50;96.60
3172;DHT22;1597;51.572;6.992;2022-07-01T09:09:39;18.50;95.20
3172;DHT22;1597;51.572;6.992;2022-07-01T09:12:08;18.50;94.90
3172;DHT22;1597;51.572;6.992;2022-07-01T09:14:35;18.60;92.50
3172;DHT22;1597;51.572;6.992;2022-07-01T09:17:03;18.70;93.30
3172;DHT22;1597;51.572;6.992;2022-07-01T09:19:33;18.80;94.30
3172;DHT22;1597;51.572;6.992;2022-07-01T09:22:04;18.90;90.90
3172;DHT22;1597;51.572;6.992;2022-07-01T09:24:41;19.00;80.30
3172;DHT22;1597;51.572;6.992;2022-07-01T09:27:10;19.00;72.10
3172;DHT22;1597;51.572;6.992;2022-07-01T09:29:49;19.00;82.40
3172;DHT22;1597;51.572;6.992;2022-07-01T09:32:20;19.10;91.10
3172;DHT22;1597;51.572;6.992;2022-07-01T09:34:52;19.10;75.60
3172;DHT22;1597;51.572;6.992;2022-07-01T09:37:20;19.10;72.80
3172;DHT22;1597;51.572;6.992;2022-07-01T09:39:49;19.20;54.80
3172;DHT22;1597;51.572;6.992;2022-07-01T09:42:17;19.30;39.30
3172;DHT22;1597;51.572;6.992;2022-07-01T09:45:06;19.40;47.50
3172;DHT22;1597;51.572;6.992;2022-07-01T09:47:52;19.50;41.30
3172;DHT22;1597;51.572;6.992;2022-07-01T09:50:18;19.60;38.40
3172;DHT22;1597;51.572;6.992;2022-07-01T09:52:44;19.70;32.30
3172;DHT22;1597;51.572;6.992;2022-07-01T09:55:10;19.60;47.50
3172;DHT22;1597;51.572;6.992;2022-07-01T09:57:38;19.30;50.80
3172;DHT22;1597;51.572;6.992;2022-07-01T10:00:05;19.30;41.80
3172;DHT22;1597;51.572;6.992;2022-07-01T10:02:33;19.20;40.90
3172;DHT22;1597;51.572;6.992;2022-07-01T10:05:09;19.20;48.90
3172;DHT22;1597;51.572;6.992;2022-07-01T10:07:55;19.30;52.00
3172;DHT22;1597;51.572;6.992;2022-07-01T10:10:41;19.40;46.20
3172;DHT22;1597;51.572;6.992;2022-07-01T10:13:10;19.50;40.00
3172;DHT22;1597;51.572;6.992;2022-07-01T10:15:40;19.60;30.30
3172;DHT22;1597;51.572;6.992;2022-07-01T10:18:22;19.50;36.90
3172;DHT22;1597;51.572;6.992;2022-07-01T10:20:49;19.60;38.40
3172;DHT22;1597;51.572;6.992;2022-07-01T10:23:19;19.50;32.10
3172;DHT22;1597;51.572;6.992;2022-07-01T10:25:54;19.60;36.30
3172;DHT22;1597;51.572;6.992;2022-07-01T10:28:42;19.70;29.10
3172;DHT22;1597;51.572;6.992;2022-07-01T10:31:13;19.70;25.00
3172;DHT22;1597;51.572;6.992;2022-07-01T10:33:56;19.90;26.00
3172;DHT22;1597;51.572;6.992;2022-07-01T10:36:28;20.00;22.40
3172;DHT22;1597;51.572;6.992;2022-07-01T10:41:32;19.90;12.70
3172;DHT22;1597;51.572;6.992;2022-07-01T10:43:58;20.10;19.70
3172;DHT22;1597;51.572;6.992;2022-07-01T10:52:14;20.00;14.40
3172;DHT22;1597;51.572;6.992;2022-07-01T10:57:41;20.00;7.70
3172;DHT22;1597;51.572;6.992;2022-07-01T11:02:37;19.70;9.00
3172;DHT22;1597;51.572;6.992;2022-07-01T11:05:12;19.50;12.20
3172;DHT22;1597;51.572;6.992;2022-07-01T11:07:42;19.70;7.70
3172;DHT22;1597;51.572;6.992;2022-07-01T11:10:15;19.90;12.30
3172;DHT22;1597;51.572;6.992;2022-07-01T11:12:45;20.00;1.00
3172;DHT22;1597;51.572;6.992;2022-07-01T11:15:14;20.00;1.00
3172;DHT22;1597;51.572;6.992;2022-07-01T11:17:47;20.20;3.10
3172;DHT22;1597;51.572;6.992;2022-07-01T11:20:13;20.40;1.00
3172;DHT22;1597;51.572;6.992;2022-07-01T11:22:39;20.50;1.00
3172;DHT22;1597;51.572;6.992;2022-07-01T11:25:10;20.50;1.00
3172;DHT22;1597;51.572;6.992;2022-07-01T11:27:38;20.50;1.00
3172;DHT22;1597;51.572;6.992;2022-07-01T11:30:11;20.50;1.00
3172;DHT22;1597;51.572;6.992;2022-07-01T11:32:46;20.60;1.00
3172;DHT22;1597;51.572;6.992;2022-07-01T11:35:19;20.70;1.00
3172;DHT22;1597;51.572;6.992;2022-07-01T11:38:24;20.60;1.00
3172;DHT22;1597;51.572;6.992;2022-07-01T11:41:21;20.60;1.00
3172;DHT22;1597;51.572;6.992;2022-07-01T11:43:51;20.50;1.00
3172;DHT22;1597;51.572;6.992;2022-07-01T11:46:18;20.40;1.00
3172;DHT22;1597;51.572;6.992;2022-07-01T11:48:48;20.40;1.00
3172;DHT22;1597;51.572;6.992;2022-07-01T11:51:21;20.40;1.00
3172;DHT22;1597;51.572;6.992;2022-07-01T11:53:50;20.40;1.00
3172;DHT22;1597;51.572;6.992;2022-07-01T11:56:34;20.40;1.00
3172;DHT22;1597;51.572;6.992;2022-07-01T11:59:04;20.40;1.00
3172;DHT22;1597;51.572;6.992;2022-07-01T12:01:32;20.40;1.00
3172;DHT22;1597;51.572;6.992;2022-07-01T12:04:05;20.50;1.00
3172;DHT22;1597;51.572;6.992;2022-07-01T12:06:34;20.50;1.00
3172;DHT22;1597;51.572;6.992;2022-07-01T12:09:01;20.50;1.00
3172;DHT22;1597;51.572;6.992;2022-07-01T12:11:28;20.50;1.00
3172;DHT22;1597;51.572;6.992;2022-07-01T12:13:56;20.50;1.00
3172;DHT22;1597;51.572;6.992;2022-07-01T12:16:23;20.50;1.00
3172;DHT22;1597;51.572;6.992;2022-07-01T12:18:58;20.50;1.00
3172;DHT22;1597;51.572;6.992;2022-07-01T12:21:29;20.50;1.00
3172;DHT22;1597;51.572;6.992;2022-07-01T12:24:07;20.50;1.00
3172;DHT22;1597;51.572;6.992;2022-07-01T12:26:48;20.50;1.00
3172;DHT22;1597;51.572;6.992;2022-07-01T12:32:14;20.70;1.00
3172;DHT22;1597;51.572;6.992;2022-07-01T12:37:21;20.70;1.00
3172;DHT22;1597;51.572;6.992;2022-07-01T12:39:54;20.60;1.00
3172;DHT22;1597;51.572;6.992;2022-07-01T12:42:36;20.70;1.00
3172;DHT22;1597;51.572;6.992;2022-07-01T12:45:11;20.70;1.00
3172;DHT22;1597;51.572;6.992;2022-07-01T12:47:44;20.70;1.00
3172;DHT22;1597;51.572;6.992;2022-07-01T12:50:24;20.70;1.00
3172;DHT22;1597;51.572;6.992;2022-07-01T12:53:10;20.90;1.00
3172;DHT22;1597;51.572;6.992;2022-07-01T12:55:42;21.10;1.00
3172;DHT22;1597;51.572;6.992;2022-07-01T12:58:11;21.10;1.00
3172;DHT22;1597;51.572;6.992;2022-07-01T13:00:43;21.20;1.00
3172;DHT22;1597;51.572;6.992;2022-07-01T13:03:11;21.40;1.00
3172;DHT22;1597;51.572;6.992;2022-07-01T13:05:38;21.50;1.00
3172;DHT22;1597;51.572;6.992;2022-07-01T13:08:05;21.60;1.00
3172;DHT22;1597;51.572;6.992;2022-07-01T13:10:32;21.50;1.00
3172;DHT22;1597;51.572;6.992;2022-07-01T13:12:58;21.50;1.00
3172;DHT22;1597;51.572;6.992;2022-07-01T13:15:24;21.40;1.00
3172;DHT22;1597;51.572;6.992;2022-07-01T13:17:51;21.30;1.00
3172;DHT22;1597;51.572;6.992;2022-07-01T13:20:17;21.20;1.00
3172;DHT22;1597;51.572;6.992;2022-07-01T13:22:45;21.10;1.00
3172;DHT22;1597;51.572;6.992;2022-07-01T13:25:13;21.20;1.00
3172;DHT22;1597;51.572;6.992;2022-07-01T13:27:40;21.40;1.00
3172;DHT22;1597;51.572;6.992;2022-07-01T13:30:09;21.40;1.00
3172;DHT22;1597;51.572;6.992;2022-07-01T13:32:36;21.50;1.00
3172;DHT22;1597;51.572;6.992;2022-07-01T13:35:05;21.50;1.00
3172;DHT22;1597;51.572;6.992;2022-07-01T13:37:32;21.70;1.00
3172;DHT22;1597;51.572;6.992;2022-07-01T13:39:58;21.60;1.00
3172;DHT22;1597;51.572;6.992;2022-07-01T13:42:24;21.80;1.00
3172;DHT22;1597;51.572;6.992;2022-07-01T13:44:51;22.00;1.00
3172;DHT22;1597;51.572;6.992;2022-07-01T13:47:17;22.00;1.00
3172;DHT22;1597;51.572;6.992;2022-07-01T13:49:44;22.00;1.00
3172;DHT22;1597;51.572;6.992;2022-07-01T13:52:11;22.00;1.00
3172;DHT22;1597;51.572;6.992;2022-07-01T13:54:47;21.90;1.00
3172;DHT22;1597;51.572;6.992;2022-07-01T13:57:13;21.90;1.00
3172;DHT22;1597;51.572;6.992;2022-07-01T13:59:40;21.80;1.00
3172;DHT22;1597;51.572;6.992;2022-07-01T14:02:10;21.70;1.00
3172;DHT22;1597;51.572;6.992;2022-07-01T14:04:37;21.60;1.00
3172;DHT22;1597;51.572;6.992;2022-07-01T14:07:04;21.60;1.00
3172;DHT22;1597;51.572;6.992;2022-07-01T14:09:31;21.70;1.00
3172;DHT22;1597;51.572;6.992;2022-07-01T14:11:57;21.90;1.00
3172;DHT22;1597;51.572;6.992;2022-07-01T14:14:23;22.10;1.00
3172;DHT22;1597;51.572;6.992;2022-07-01T14:16:51;22.20;1.00
3172;DHT22;1597;51.572;6.992;2022-07-01T14:19:16;22.30;1.00
3172;DHT22;1597;51.572;6.992;2022-07-01T14:21:42;22.30;1.00
3172;DHT22;1597;51.572;6.992;2022-07-01T14:24:08;22.30;1.00
3172;DHT22;1597;51.572;6.992;2022-07-01T14:26:34;22.20;1.00
3172;DHT22;1597;51.572;6.992;2022-07-01T14:29:00;22.20;1.00
3172;DHT22;1597;51.572;6.992;2022-07-01T14:31:25;22.20;1.00
3172;DHT22;1597;51.572;6.992;2022-07-01T14:33:52;22.20;1.00
3172;DHT22;1597;51.572;6.992;2022-07-01T14:36:18;22.20;1.00
3172;DHT22;1597;51.572;6.992;2022-07-01T14:38:44;22.20;1.00
3172;DHT22;1597;51.572;6.992;2022-07-01T14:41:10;22.30;1.00
3172;DHT22;1597;51.572;6.992;2022-07-01T14:43:36;22.20;1.00
3172;DHT22;1597;51.572;6.992;2022-07-01T14:46:04;22.20;1.00
3172;DHT22;1597;51.572;6.992;2022-07-01T14:48:35;22.30;1.00
3172;DHT22;1597;51.572;6.992;2022-07-01T14:51:04;22.30;1.00
3172;DHT22;1597;51.572;6.992;2022-07-01T14:53:31;22.20;1.00
3172;DHT22;1597;51.572;6.992;2022-07-01T14:55:57;22.10;1.00
3172;DHT22;1597;51.572;6.992;2022-07-01T14:58:22;21.90;1.00
3172;DHT22;1597;51.572;6.992;2022-07-01T15:00:48;21.90;1.00
3172;DHT22;1597;51.572;6.992;2022-07-01T15:03:15;21.80;1.00
3172;DHT22;1597;51.572;6.992;2022-07-01T15:05:43;21.80;1.00
3172;DHT22;1597;51.572;6.992;2022-07-01T15:08:09;21.90;1.00
3172;DHT22;1597;51.572;6.992;2022-07-01T15:10:35;22.10;1.00
3172;DHT22;1597;51.572;6.992;2022-07-01T15:13:01;22.20;1.00
3172;DHT22;1597;51.572;6.992;2022-07-01T15:15:27;22.30;1.00
3172;DHT22;1597;51.572;6.992;2022-07-01T15:17:53;22.20;1.00
3172;DHT22;1597;51.572;6.992;2022-07-01T15:20:19;22.20;1.00
3172;DHT22;1597;51.572;6.992;2022-07-01T15:22:46;22.30;1.00
3172;DHT22;1597;51.572;6.992;2022-07-01T15:25:15;22.20;1.00
3172;DHT22;1597;51.572;6.992;2022-07-01T15:27:44;22.20;1.00
3172;DHT22;1597;51.572;6.992;2022-07-01T15:30:10;22.20;1.00
3172;DHT22;1597;51.572;6.992;2022-07-01T15:32:36;22.20;1.00
3172;DHT22;1597;51.572;6.992;2022-07-01T15:35:02;22.30;1.00
3172;DHT22;1597;51.572;6.992;2022-07-01T15:37:30;22.30;1.00
3172;DHT22;1597;51.572;6.992;2022-07-01T15:39:57;22.30;1.00
3172;DHT22;1597;51.572;6.992;2022-07-01T15:42:25;22.20;1.00
3172;DHT22;1597;51.572;6.992;2022-07-01T15:44:52;22.10;1.00
3172;DHT22;1597;51.572;6.992;2022-07-01T15:47:18;22.00;1.00
3172;DHT22;1597;51.572;6.992;2022-07-01T15:50:05;21.90;1.00
3172;DHT22;1597;51.572;6.992;2022-07-01T15:52:31;22.00;1.00
3172;DHT22;1597;51.572;6.992;2022-07-01T15:54:57;22.20;1.00
3172;DHT22;1597;51.572;6.992;2022-07-01T15:57:23;22.20;1.00
3172;DHT22;1597;51.572;6.992;2022-07-01T15:59:49;22.30;1.00
3172;DHT22;1597;51.572;6.992;2022-07-01T16:02:17;22.30;1.00
3172;DHT22;1597;51.572;6.992;2022-07-01T16:04:46;22.30;1.00
3172;DHT22;1597;51.572;6.992;2022-07-01T16:07:17;22.40;1.00
3172;DHT22;1597;51.572;6.992;2022-07-01T16:09:51;22.30;1.00
3172;DHT22;1597;51.572;6.992;2022-07-01T16:12:25;22.30;1.00
3172;DHT22;1597;51.572;6.992;2022-07-01T16:14:53;22.40;1.00
3172;DHT22;1597;51.572;6.992;2022-07-01T16:17:23;22.40;1.00
3172;DHT22;1597;51.572;6.992;2022-07-01T16:19:52;22.40;1.00
3172;DHT22;1597;51.572;6.992;2022-07-01T16:22:19;22.50;1.00
3172;DHT22;1597;51.572;6.992;2022-07-01T16:24:47;22.60;1.00
3172;DHT22;1597;51.572;6.992;2022-07-01T16:27:17;22.60;1.00
3172;DHT22;1597;51.572;6.992;2022-07-01T16:29:44;22.50;1.00
3172;DHT22;1597;51.572;6.992;2022-07-01T16:32:15;22.60;1.00
3172;DHT22;1597;51.572;6.992;2022-07-01T16:34:42;22.50;1.00